createdAt,value
2019-03-26T00:03:05.457Z,10.90
2019-03-26T00:07:11.225Z,10.74
2019-03-26T00:11:16.935Z,10.64
2019-03-26T00:15:22.646Z,10.68
2019-03-26T00:19:28.340Z,10.90
2019-03-26T00:23:34.025Z,10.89
2019-03-26T00:27:39.713Z,10.87
2019-03-26T00:31:45.476Z,10.77
2019-03-26T00:35:51.170Z,10.65
2019-03-26T00:39:57.239Z,10.77
2019-03-26T00:44:02.946Z,10.87
2019-03-26T00:48:08.647Z,10.84
2019-03-26T00:52:14.354Z,10.83
2019-03-26T00:56:20.139Z,10.68
2019-03-26T01:00:38.114Z,10.62
2019-03-26T01:04:43.881Z,10.75
2019-03-26T01:08:49.574Z,10.72
2019-03-26T01:12:55.754Z,10.56
2019-03-26T01:17:01.563Z,10.61
2019-03-26T01:21:07.403Z,10.55
2019-03-26T01:25:13.077Z,10.55
2019-03-26T01:29:18.767Z,10.64
2019-03-26T01:33:24.499Z,10.73
2019-03-26T01:37:30.206Z,10.75
2019-03-26T01:41:35.896Z,10.77
2019-03-26T01:45:41.589Z,10.62
2019-03-26T01:49:47.281Z,10.62
2019-03-26T01:53:52.977Z,10.61
2019-03-26T01:57:58.894Z,10.48
2019-03-26T02:02:04.636Z,10.58
2019-03-26T02:06:10.363Z,10.48
2019-03-26T02:10:16.070Z,10.35
2019-03-26T02:14:21.778Z,10.24
2019-03-26T02:18:27.492Z,10.29
2019-03-26T02:22:33.172Z,10.36
2019-03-26T02:26:38.865Z,10.31
2019-03-26T02:30:44.553Z,10.28
2019-03-26T02:34:50.415Z,10.34
2019-03-26T02:38:56.323Z,10.22
2019-03-26T02:43:01.996Z,10.18
2019-03-26T02:47:07.699Z,10.16
2019-03-26T02:51:13.363Z,10.03
2019-03-26T02:55:19.116Z,9.97
2019-03-26T02:59:24.801Z,9.89
2019-03-26T03:03:30.534Z,9.85
2019-03-26T03:07:36.323Z,9.76
2019-03-26T03:11:42.012Z,9.72
2019-03-26T03:15:47.744Z,9.78
2019-03-26T03:19:53.472Z,9.84
2019-03-26T03:23:59.409Z,9.81
2019-03-26T03:28:05.087Z,9.71
2019-03-26T03:32:10.783Z,9.93
2019-03-26T03:36:16.492Z,9.95
2019-03-26T03:40:22.191Z,9.83
2019-03-26T03:44:27.888Z,9.94
2019-03-26T03:48:36.506Z,10.03
2019-03-26T03:52:43.029Z,9.99
2019-03-26T03:56:53.194Z,9.95
2019-03-26T04:00:59.109Z,10.09
2019-03-26T04:05:06.595Z,10.15
2019-03-26T04:09:12.303Z,10.12
2019-03-26T04:13:18.005Z,10.26
2019-03-26T04:17:23.701Z,10.38
2019-03-26T04:21:29.384Z,10.25
2019-03-26T04:25:35.108Z,10.18
2019-03-26T04:29:40.812Z,10.03
2019-03-26T04:33:46.601Z,9.98
2019-03-26T04:37:52.566Z,10.07
2019-03-26T04:41:59.455Z,10.06
2019-03-26T04:46:05.235Z,10.00
2019-03-26T04:50:11.238Z,10.00
2019-03-26T04:54:16.926Z,9.94
2019-03-26T04:58:22.606Z,9.63
2019-03-26T05:02:28.360Z,9.79
2019-03-26T05:06:38.324Z,9.92
2019-03-26T05:10:41.580Z,9.72
2019-03-26T05:14:47.277Z,9.58
2019-03-26T05:18:54.015Z,9.43
2019-03-26T05:22:59.786Z,9.42
2019-03-26T05:27:05.481Z,9.43
2019-03-26T05:31:11.227Z,9.29
2019-03-26T05:35:17.075Z,9.41
2019-03-26T05:39:22.749Z,9.38
2019-03-26T05:43:28.459Z,9.26
2019-03-26T05:47:34.140Z,9.30
2019-03-26T05:51:39.828Z,9.80
2019-03-26T05:55:45.520Z,9.97
2019-03-26T05:59:51.262Z,9.84
2019-03-26T06:03:57.064Z,9.83
2019-03-26T06:08:02.758Z,10.00
2019-03-26T06:12:08.517Z,10.06
2019-03-26T06:16:14.203Z,10.28
2019-03-26T06:20:20.270Z,10.36
2019-03-26T06:24:28.567Z,10.48
2019-03-26T06:28:34.320Z,10.41
2019-03-26T06:32:43.574Z,10.36
2019-03-26T06:36:49.315Z,10.66
2019-03-26T06:40:55.003Z,10.80
2019-03-26T06:45:00.868Z,10.82
2019-03-26T06:49:06.560Z,10.78
2019-03-26T06:53:12.247Z,10.86
2019-03-26T06:57:18.005Z,10.88
2019-03-26T07:01:23.705Z,10.83
2019-03-26T07:05:29.404Z,10.80
2019-03-26T07:09:35.107Z,10.85
2019-03-26T07:13:40.812Z,11.06
2019-03-26T07:17:46.527Z,10.97
2019-03-26T07:21:52.230Z,10.96
2019-03-26T07:25:59.668Z,10.91
2019-03-26T07:30:10.182Z,10.93
2019-03-26T07:34:15.940Z,10.93
2019-03-26T07:38:21.784Z,11.02
2019-03-26T07:42:27.498Z,10.99
2019-03-26T07:46:33.291Z,11.15
2019-03-26T07:50:40.538Z,11.21
2019-03-26T07:54:46.220Z,11.06
2019-03-26T07:58:51.919Z,11.21
2019-03-26T08:02:59.058Z,11.18
2019-03-26T08:07:04.827Z,11.23
2019-03-26T08:11:10.539Z,11.48
2019-03-26T08:15:16.301Z,11.39
2019-03-26T08:19:21.973Z,11.33
2019-03-26T08:23:27.710Z,11.37
2019-03-26T08:27:33.436Z,11.38
2019-03-26T08:31:39.210Z,11.34
2019-03-26T08:35:44.895Z,11.33
2019-03-26T08:39:52.399Z,11.39
2019-03-26T08:43:58.202Z,11.54
2019-03-26T08:48:04.063Z,11.68
2019-03-26T08:52:09.782Z,11.81
2019-03-26T08:56:15.502Z,11.76
2019-03-26T09:00:22.315Z,11.77
2019-03-26T09:04:28.013Z,11.78
2019-03-26T09:08:33.689Z,11.84
2019-03-26T09:12:39.789Z,12.00
2019-03-26T09:16:45.674Z,12.26
2019-03-26T09:20:51.514Z,12.53
2019-03-26T09:24:57.418Z,12.89
2019-03-26T09:29:03.137Z,13.02
2019-03-26T09:33:08.835Z,12.70
2019-03-26T09:37:14.532Z,12.30
2019-03-26T09:41:20.337Z,12.10
2019-03-26T09:45:26.092Z,11.89
2019-03-26T09:49:31.790Z,11.68
2019-03-26T09:53:37.600Z,11.64
2019-03-26T09:57:43.298Z,11.65
2019-03-26T10:01:48.995Z,11.88
2019-03-26T10:05:54.691Z,11.87
2019-03-26T10:10:00.472Z,12.09
2019-03-26T10:14:06.275Z,12.21
2019-03-26T10:18:11.982Z,12.21
2019-03-26T10:22:20.018Z,12.48
2019-03-26T10:26:25.193Z,12.48
2019-03-26T10:30:39.793Z,12.69
2019-03-26T10:34:45.449Z,12.83
2019-03-26T10:38:51.147Z,13.08
2019-03-26T10:42:56.991Z,13.42
2019-03-26T10:47:02.847Z,14.27
2019-03-26T10:51:08.584Z,16.89
2019-03-26T10:55:15.279Z,19.23
2019-03-26T10:59:21.127Z,21.53
2019-03-26T11:03:33.955Z,19.02
2019-03-26T11:07:42.546Z,17.00
2019-03-26T11:11:47.179Z,15.78
2019-03-26T11:15:52.878Z,15.11
2019-03-26T11:19:58.670Z,14.82
2019-03-26T11:24:04.734Z,14.81
2019-03-26T11:28:10.500Z,14.97
2019-03-26T11:32:16.177Z,15.15
2019-03-26T11:36:21.877Z,15.46
2019-03-26T11:40:27.633Z,15.02
2019-03-26T11:44:33.335Z,14.86
2019-03-26T11:48:39.122Z,14.72
2019-03-26T11:52:44.875Z,14.58
2019-03-26T11:56:50.683Z,14.27
2019-03-26T12:00:56.471Z,14.16
2019-03-26T12:05:02.239Z,14.29
2019-03-26T12:09:09.028Z,14.42
2019-03-26T12:13:14.706Z,14.39
2019-03-26T12:17:20.411Z,15.39
2019-03-26T12:21:26.104Z,16.92
2019-03-26T12:25:31.792Z,18.40
2019-03-26T12:29:37.499Z,19.87
2019-03-26T12:33:43.185Z,20.20
2019-03-26T12:37:48.931Z,19.60
2019-03-26T12:41:54.691Z,19.86
2019-03-26T12:46:02.024Z,20.29
2019-03-26T12:50:09.566Z,20.64
2019-03-26T12:54:15.275Z,20.58
2019-03-26T12:58:31.217Z,20.10
2019-03-26T13:02:29.436Z,19.65
2019-03-26T13:06:35.405Z,20.05
2019-03-26T13:10:52.740Z,21.02
2019-03-26T13:14:48.574Z,21.23
2019-03-26T13:18:54.258Z,21.65
2019-03-26T13:23:00.074Z,21.02
2019-03-26T13:27:05.817Z,20.39
2019-03-26T13:31:11.514Z,18.41
2019-03-26T13:35:17.546Z,18.58
2019-03-26T13:39:23.239Z,19.22
2019-03-26T13:43:28.936Z,21.05
2019-03-26T13:47:34.606Z,22.16
2019-03-26T13:51:40.310Z,20.13
2019-03-26T13:55:46.002Z,18.00
2019-03-26T13:59:51.764Z,16.96
2019-03-26T14:03:57.460Z,17.14
2019-03-26T14:08:03.275Z,19.63
2019-03-26T14:12:08.987Z,22.00
2019-03-26T14:16:14.686Z,19.99
2019-03-26T14:20:20.804Z,19.33
2019-03-26T14:24:26.438Z,18.88
2019-03-26T14:28:32.129Z,17.67
2019-03-26T14:32:37.825Z,16.91
2019-03-26T14:36:43.545Z,16.45
2019-03-26T14:40:55.057Z,18.64
2019-03-26T14:44:56.788Z,20.28
2019-03-26T14:49:02.533Z,19.82
2019-03-26T14:53:08.234Z,19.81
2019-03-26T14:57:13.928Z,19.32
2019-03-26T15:01:19.625Z,19.58
2019-03-26T15:05:25.408Z,20.05
2019-03-26T15:09:31.196Z,18.64
2019-03-26T15:13:36.879Z,17.29
2019-03-26T15:17:42.594Z,16.49
2019-03-26T15:21:48.293Z,16.00
2019-03-26T15:25:53.968Z,15.67
2019-03-26T15:30:01.371Z,16.09
2019-03-26T15:34:07.142Z,16.10
2019-03-26T15:38:12.908Z,15.98
2019-03-26T15:42:18.600Z,15.47
2019-03-26T15:46:24.305Z,15.33
2019-03-26T15:50:44.947Z,15.22
2019-03-26T15:54:50.645Z,15.65
2019-03-26T15:58:56.338Z,15.95
2019-03-26T16:03:02.180Z,15.52
2019-03-26T16:07:07.932Z,15.23
2019-03-26T16:11:13.626Z,14.86
2019-03-26T16:15:19.343Z,14.72
2019-03-26T16:19:31.987Z,14.59
2019-03-26T16:23:32.438Z,14.56
2019-03-26T16:27:38.134Z,14.49
2019-03-26T16:31:43.821Z,14.43
2019-03-26T16:36:16.637Z,14.32
2019-03-26T16:40:22.449Z,14.26
2019-03-26T16:44:28.168Z,14.11
2019-03-26T16:48:34.833Z,14.04
2019-03-26T16:52:40.601Z,13.90
2019-03-26T16:56:46.298Z,13.81
2019-03-26T17:00:52.983Z,13.79
2019-03-26T17:04:58.735Z,13.64
2019-03-26T17:09:19.655Z,13.50
2019-03-26T17:13:25.504Z,13.40
2019-03-26T17:17:31.289Z,13.33
2019-03-26T17:21:36.981Z,13.35
2019-03-26T17:25:42.686Z,13.39
2019-03-26T17:29:48.416Z,13.48
2019-03-26T17:33:54.095Z,13.28
2019-03-26T17:38:00.535Z,13.18
2019-03-26T17:42:17.026Z,13.12
2019-03-26T17:46:15.729Z,12.98
2019-03-26T17:50:21.509Z,12.94
2019-03-26T17:54:27.228Z,12.94
2019-03-26T17:58:32.926Z,12.84
2019-03-26T18:02:38.673Z,12.86
2019-03-26T18:06:44.379Z,12.96
2019-03-26T18:10:50.132Z,12.91
2019-03-26T18:14:55.842Z,12.78
2019-03-26T18:19:01.833Z,12.80
2019-03-26T18:23:07.588Z,12.78
2019-03-26T18:27:13.350Z,12.76
2019-03-26T18:36:06.746Z,12.82
2019-03-26T18:40:12.775Z,12.79
2019-03-26T18:44:19.443Z,12.75
2019-03-26T18:48:25.166Z,12.66
2019-03-26T18:52:30.870Z,12.51
2019-03-26T18:56:37.533Z,12.52
2019-03-26T19:00:43.269Z,12.68
2019-03-26T19:05:19.065Z,12.78
2019-03-26T19:09:24.775Z,12.86
2019-03-26T19:18:20.471Z,12.63
2019-03-26T19:22:26.193Z,12.76
2019-03-26T19:26:31.887Z,12.70
2019-03-26T19:30:37.671Z,12.66
2019-03-26T19:34:43.419Z,12.59
2019-03-26T19:39:18.904Z,12.59
2019-03-26T19:43:24.713Z,12.53
2019-03-26T19:47:30.495Z,12.60
2019-03-26T19:52:18.067Z,12.49
2019-03-26T19:56:23.824Z,12.49
2019-03-26T20:00:29.535Z,12.30
2019-03-26T20:04:36.284Z,12.41
2019-03-26T20:13:24.616Z,12.10
2019-03-26T20:17:27.722Z,11.96
2019-03-26T20:22:18.369Z,11.88
2019-03-26T20:26:24.060Z,11.88
2019-03-26T20:30:29.756Z,11.88
2019-03-26T20:35:17.503Z,11.98
2019-03-26T20:39:23.278Z,12.04
2019-03-26T20:43:37.264Z,12.04
2019-03-26T20:47:36.491Z,12.08
2019-03-26T20:51:42.267Z,11.96
2019-03-26T20:55:54.182Z,12.11
2019-03-26T20:59:55.724Z,12.27
2019-03-26T21:04:01.712Z,12.32
2019-03-26T21:08:07.834Z,12.15
2019-03-26T21:12:13.540Z,11.98
2019-03-26T21:16:19.332Z,11.89
2019-03-26T21:20:25.024Z,11.71
2019-03-26T21:24:30.821Z,11.57
2019-03-26T21:28:36.548Z,11.75
2019-03-26T21:32:42.322Z,11.96
2019-03-26T21:37:17.902Z,12.17
2019-03-26T21:41:23.761Z,12.22
2019-03-26T21:45:37.406Z,12.34
2019-03-26T21:49:43.236Z,12.42
2019-03-26T21:53:48.922Z,12.32
2019-03-26T21:57:54.667Z,12.21
2019-03-26T22:02:01.592Z,12.05
2019-03-26T22:06:07.279Z,12.10
2019-03-26T22:10:13.420Z,12.29
2019-03-26T22:14:19.110Z,12.35
2019-03-26T22:18:24.832Z,12.33
2019-03-26T22:22:32.174Z,12.24
2019-03-26T22:26:37.859Z,12.14
2019-03-26T22:30:43.642Z,12.11
2019-03-26T22:34:49.303Z,11.90
2019-03-26T22:38:55.009Z,11.93
2019-03-26T22:43:00.835Z,11.97
2019-03-26T22:47:06.732Z,12.00
2019-03-26T22:51:12.509Z,11.84
2019-03-26T22:55:18.189Z,11.52
2019-03-26T23:06:17.077Z,11.64
2019-03-26T23:11:17.241Z,11.98
2019-03-26T23:15:27.745Z,12.01
2019-03-26T23:20:18.570Z,11.68
2019-03-26T23:24:42.558Z,11.71
2019-03-26T23:28:48.256Z,11.82
2019-03-26T23:32:53.974Z,11.87
2019-03-26T23:36:59.716Z,11.87
2019-03-26T23:41:05.604Z,11.97
2019-03-26T23:45:12.054Z,11.87
2019-03-26T23:49:17.745Z,11.84
2019-03-26T23:53:23.444Z,11.62
2019-03-26T23:57:29.147Z,11.66
